createdAt,value
2019-05-22T00:01:58.227Z,10.6390
2019-05-22T00:04:59.217Z,10.6230
2019-05-22T00:06:48.236Z,10.6657
2019-05-22T00:09:49.196Z,10.6096
2019-05-22T00:11:38.201Z,10.6230
2019-05-22T00:14:39.200Z,10.6096
2019-05-22T00:20:40.199Z,10.5962
2019-05-22T00:25:28.198Z,10.5962
2019-05-22T00:31:29.204Z,10.6390
2019-05-22T00:36:18.198Z,10.6096
2019-05-22T00:39:19.203Z,10.6390
2019-05-22T00:41:08.254Z,10.7218
2019-05-22T00:45:58.204Z,10.7084
2019-05-22T00:48:59.245Z,10.6950
2019-05-22T00:51:59.214Z,10.6657
2019-05-22T00:59:49.196Z,10.5829
2019-05-22T01:01:38.349Z,10.5535
2019-05-22T01:03:28.460Z,10.5402
2019-05-22T01:09:28.204Z,10.5962
2019-05-22T01:12:28.239Z,10.5962
2019-05-22T01:27:29.220Z,10.5108
2019-05-22T01:38:19.235Z,10.4841
2019-05-22T01:40:08.203Z,10.4280
2019-05-22T01:45:05.901Z,10.4547
2019-05-22T01:45:39.333Z,10.4841
2019-05-22T01:57:09.253Z,10.4974
2019-05-22T02:04:58.204Z,10.4414
2019-05-22T02:25:59.205Z,10.3532
2019-05-22T02:27:48.204Z,10.3399
2019-05-22T02:30:48.218Z,10.3719
2019-05-22T02:45:49.804Z,10.3132
2019-05-22T02:47:39.201Z,10.2544
2019-05-22T02:49:28.186Z,10.3132
2019-05-22T02:52:29.245Z,10.2972
2019-05-22T02:54:18.213Z,10.2544
2019-05-22T03:02:48.372Z,10.2705
2019-05-22T03:17:50.120Z,10.2838
2019-05-22T03:21:28.208Z,10.2544
2019-05-22T03:38:18.261Z,10.1289
2019-05-22T03:44:19.224Z,10.1156
2019-05-22T03:49:25.697Z,10.1156
2019-05-22T03:54:38.250Z,10.0729
2019-05-22T03:56:27.779Z,10.0729
2019-05-22T03:57:04.238Z,10.0862
2019-05-22T03:57:41.188Z,10.0862
2019-05-22T03:58:18.205Z,10.0862
2019-05-22T03:59:31.963Z,10.1156
2019-05-22T04:11:38.197Z,10.0595
2019-05-22T04:17:09.250Z,10.1289
2019-05-22T04:18:58.206Z,10.1156
2019-05-22T04:23:48.190Z,10.0862
2019-05-22T04:29:19.187Z,10.1022
2019-05-22T04:58:38.205Z,10.2411
2019-05-22T05:04:38.250Z,10.1850
2019-05-22T05:06:28.200Z,10.1717
2019-05-22T05:18:29.219Z,10.0435
2019-05-22T05:23:18.199Z,10.1156
2019-05-22T05:29:19.213Z,10.0729
2019-05-22T05:37:08.206Z,9.9313
2019-05-22T05:40:09.212Z,10.0034
2019-05-22T05:41:58.199Z,10.0168
2019-05-22T05:47:28.197Z,10.0034
2019-05-22T05:53:28.233Z,10.3132
2019-05-22T05:57:48.243Z,10.6096
2019-05-22T06:02:37.604Z,10.8339
2019-05-22T06:13:28.213Z,11.2318
2019-05-22T06:16:28.214Z,10.9060
2019-05-22T06:24:58.194Z,10.6950
2019-05-22T06:27:59.211Z,10.7938
2019-05-22T06:29:48.830Z,11.0315
2019-05-22T06:37:38.238Z,11.5415
2019-05-22T06:40:39.249Z,11.6110
2019-05-22T06:42:28.238Z,11.6403
2019-05-22T06:45:28.808Z,11.7552
2019-05-22T06:51:29.208Z,11.6964
2019-05-22T06:56:23.402Z,11.6670
2019-05-22T06:58:12.371Z,11.7952
2019-05-22T07:03:38.287Z,11.6670
2019-05-22T07:06:39.222Z,11.6110
2019-05-22T07:08:28.218Z,11.5682
2019-05-22T07:12:08.230Z,11.6110
2019-05-22T07:15:48.233Z,11.8540
2019-05-22T07:21:18.307Z,12.2599
2019-05-22T07:36:20.236Z,12.3159
2019-05-22T07:46:01.051Z,13.0076
2019-05-22T07:46:38.186Z,12.8553
2019-05-22T07:51:28.283Z,12.8820
2019-05-22T07:52:05.310Z,13.0503
2019-05-22T07:53:18.216Z,13.0503
2019-05-22T08:01:09.667Z,13.0076
2019-05-22T08:02:58.301Z,13.2212
2019-05-22T08:20:19.213Z,13.9715
2019-05-22T08:23:19.248Z,14.1825
2019-05-22T08:31:20.228Z,13.9555
2019-05-22T08:32:33.333Z,14.3641
2019-05-22T08:33:10.247Z,14.3774
2019-05-22T08:33:48.601Z,14.4068
2019-05-22T08:34:53.879Z,13.9715
2019-05-22T08:39:42.434Z,14.8020
2019-05-22T08:41:43.200Z,14.8180
2019-05-22T08:42:58.044Z,14.6632
2019-05-22T08:49:54.207Z,15.3120
2019-05-22T08:51:43.231Z,15.2399
2019-05-22T08:52:24.234Z,15.2266
2019-05-22T08:54:30.646Z,14.7326
2019-05-22T08:56:19.353Z,14.6071
2019-05-22T09:00:33.202Z,15.2987
2019-05-22T09:03:34.203Z,15.2399
2019-05-22T09:05:23.217Z,15.2560
2019-05-22T09:07:52.063Z,14.0677
2019-05-22T09:08:29.263Z,14.2386
2019-05-22T09:13:20.679Z,14.6204
2019-05-22T09:13:57.233Z,14.7887
2019-05-22T09:20:48.164Z,14.9569
2019-05-22T09:21:18.447Z,15.0290
2019-05-22T09:22:40.664Z,15.2560
2019-05-22T09:23:56.441Z,15.3815
2019-05-22T09:29:44.233Z,15.1999
2019-05-22T09:31:00.476Z,16.1852
2019-05-22T09:31:38.352Z,15.5230
2019-05-22T09:32:16.067Z,15.1705
2019-05-22T09:32:53.277Z,16.1719
2019-05-22T09:35:03.232Z,16.0597
2019-05-22T09:36:17.230Z,15.4536
2019-05-22T09:36:54.517Z,16.1585
2019-05-22T09:40:06.055Z,15.2266
2019-05-22T09:41:35.058Z,16.2974
2019-05-22T09:47:19.227Z,15.4109
2019-05-22T09:50:16.294Z,15.5924
2019-05-22T09:55:07.430Z,16.5698
2019-05-22T09:55:47.195Z,16.2707
2019-05-22T09:56:26.683Z,16.3401
2019-05-22T09:57:14.237Z,15.5791
2019-05-22T09:57:53.933Z,16.6953
2019-05-22T09:58:31.205Z,16.1585
2019-05-22T09:59:56.232Z,15.8621
2019-05-22T10:00:34.157Z,15.6779
2019-05-22T10:01:14.470Z,15.5791
2019-05-22T10:02:27.231Z,15.3681
2019-05-22T10:04:16.261Z,15.9609
2019-05-22T10:07:17.272Z,16.3134
2019-05-22T10:08:44.575Z,16.4122
2019-05-22T10:09:21.258Z,16.1025
2019-05-22T10:09:58.188Z,16.1719
2019-05-22T10:10:35.408Z,16.2573
2019-05-22T10:12:40.268Z,16.5244
2019-05-22T10:13:17.709Z,16.6525
2019-05-22T10:13:54.745Z,16.3695
2019-05-22T10:14:32.312Z,16.3561
2019-05-22T10:16:01.223Z,16.4389
2019-05-22T10:16:38.255Z,16.3695
2019-05-22T10:17:54.738Z,16.0731
2019-05-22T10:18:30.225Z,17.0478
2019-05-22T10:19:58.073Z,15.7900
2019-05-22T10:20:36.307Z,16.8769
2019-05-22T10:22:03.006Z,16.3962
2019-05-22T10:22:40.342Z,16.2413
2019-05-22T10:23:17.287Z,16.1585
2019-05-22T10:23:54.336Z,15.9743
2019-05-22T10:25:15.412Z,16.3962
2019-05-22T10:26:50.582Z,15.8167
2019-05-22T10:27:27.792Z,16.7086
2019-05-22T10:28:04.215Z,16.4817
2019-05-22T10:28:41.238Z,16.6819
2019-05-22T10:31:55.296Z,16.0464
2019-05-22T10:33:11.117Z,16.0304
2019-05-22T10:33:52.247Z,16.0597
2019-05-22T10:34:28.253Z,16.4122
2019-05-22T10:35:16.442Z,16.5084
2019-05-22T10:38:20.248Z,16.5084
2019-05-22T10:38:57.899Z,16.4523
2019-05-22T10:40:12.751Z,17.1733
2019-05-22T10:40:50.256Z,16.8929
2019-05-22T10:41:27.206Z,16.3561
2019-05-22T10:43:45.110Z,15.9342
2019-05-22T10:45:11.199Z,16.4256
2019-05-22T10:45:48.221Z,17.0478
2019-05-22T10:47:18.264Z,16.2974
2019-05-22T10:47:55.366Z,17.7661
2019-05-22T10:48:33.893Z,17.2454
2019-05-22T10:52:24.409Z,16.9917
2019-05-22T10:53:01.600Z,16.7807
2019-05-22T10:54:14.336Z,17.0478
2019-05-22T10:54:50.396Z,16.7807
2019-05-22T10:55:27.671Z,17.2320
2019-05-22T10:56:07.971Z,16.8368
2019-05-22T10:56:45.220Z,16.7514
2019-05-22T10:58:34.260Z,17.4296
2019-05-22T11:01:37.725Z,17.0878
2019-05-22T11:02:14.469Z,17.5124
2019-05-22T11:06:45.798Z,17.3575
2019-05-22T11:07:22.208Z,16.5831
2019-05-22T11:08:35.234Z,16.9196
2019-05-22T11:09:12.250Z,16.9196
2019-05-22T11:09:49.247Z,16.8368
2019-05-22T11:10:26.334Z,17.5284
2019-05-22T11:11:03.197Z,17.0878
2019-05-22T11:14:16.784Z,18.0652
2019-05-22T11:18:15.288Z,18.0224
2019-05-22T11:33:58.742Z,17.7234
2019-05-22T11:34:37.649Z,17.9931
2019-05-22T11:35:15.060Z,17.0317
2019-05-22T11:37:44.730Z,17.2320
2019-05-22T11:39:07.365Z,18.7434
2019-05-22T11:40:59.241Z,16.9917
2019-05-22T11:41:39.536Z,17.4002
2019-05-22T11:43:01.204Z,17.4723
2019-05-22T11:43:37.196Z,17.0478
2019-05-22T11:46:47.526Z,17.2026
2019-05-22T11:48:33.740Z,17.5685
2019-05-22T11:56:58.245Z,18.3589
2019-05-22T11:58:47.265Z,17.8088
2019-05-22T12:03:24.253Z,17.7661
2019-05-22T12:10:43.724Z,17.8649
2019-05-22T12:11:22.233Z,18.0919
2019-05-22T12:11:59.205Z,17.6406
2019-05-22T12:20:24.249Z,17.6833
2019-05-22T12:25:56.692Z,17.7394
2019-05-22T12:26:33.462Z,17.6833
2019-05-22T12:27:15.098Z,17.9236
2019-05-22T12:35:03.034Z,18.5698
2019-05-22T12:37:26.243Z,18.8689
2019-05-22T12:38:03.316Z,18.7568
2019-05-22T12:46:08.452Z,18.2200
2019-05-22T12:46:50.992Z,18.1346
2019-05-22T12:47:31.733Z,18.3188
2019-05-22T12:48:08.192Z,18.5298
2019-05-22T12:51:46.188Z,18.4737
2019-05-22T12:54:46.011Z,17.9530
2019-05-22T12:54:46.011Z,18.5698
2019-05-22T12:55:17.806Z,18.2895
2019-05-22T13:03:12.212Z,18.1479
2019-05-22T13:04:24.535Z,18.3322
2019-05-22T13:07:32.444Z,18.0224
2019-05-22T13:08:09.187Z,17.7794
2019-05-22T13:09:22.189Z,17.8515
2019-05-22T13:10:04.864Z,17.8943
2019-05-22T13:10:41.633Z,17.4002
2019-05-22T13:15:33.364Z,17.9931
2019-05-22T13:16:13.664Z,18.3883
2019-05-22T13:17:26.858Z,19.2935
2019-05-22T13:18:06.629Z,18.3188
2019-05-22T13:18:46.573Z,18.4310
2019-05-22T13:20:42.381Z,18.1640
2019-05-22T13:26:07.229Z,17.5551
2019-05-22T13:38:08.309Z,17.8943
2019-05-22T13:41:45.575Z,18.3883
2019-05-22T13:42:22.210Z,18.9250
2019-05-22T13:43:00.878Z,18.7568
2019-05-22T13:47:55.541Z,17.4723
2019-05-22T13:51:23.235Z,17.4990
2019-05-22T13:52:03.781Z,17.5845
2019-05-22T13:53:29.277Z,17.2026
2019-05-22T13:55:57.649Z,17.8382
2019-05-22T13:58:10.931Z,18.1346
2019-05-22T14:03:35.412Z,17.6673
2019-05-22T14:04:12.229Z,17.8649
2019-05-22T14:04:51.762Z,18.2895
2019-05-22T14:06:20.914Z,17.8382
2019-05-22T14:06:58.450Z,17.8382
2019-05-22T14:07:38.400Z,17.7794
2019-05-22T14:08:19.196Z,17.7955
2019-05-22T14:08:56.227Z,17.9236
2019-05-22T14:09:33.307Z,18.0785
2019-05-22T14:10:10.229Z,18.4577
2019-05-22T14:10:49.736Z,18.4737
2019-05-22T14:11:27.230Z,19.2481
2019-05-22T14:12:04.252Z,19.2214
2019-05-22T14:12:41.207Z,18.7274
2019-05-22T14:13:18.249Z,18.7007
2019-05-22T14:13:57.517Z,18.1212
2019-05-22T14:15:25.726Z,17.9370
2019-05-22T14:16:04.694Z,18.5565
2019-05-22T14:16:49.156Z,17.8515
2019-05-22T14:17:28.294Z,18.0224
2019-05-22T14:18:06.516Z,17.4990
2019-05-22T14:18:43.788Z,17.8782
2019-05-22T14:19:22.110Z,18.0652
2019-05-22T14:20:01.392Z,18.1907
2019-05-22T14:21:29.397Z,18.2467
2019-05-22T14:22:07.498Z,17.9931
2019-05-22T14:22:47.358Z,17.7527
2019-05-22T14:23:31.335Z,17.7100
2019-05-22T14:24:56.529Z,18.1346
2019-05-22T14:25:33.873Z,18.2895
2019-05-22T14:26:10.872Z,18.3589
2019-05-22T14:26:48.199Z,18.2761
2019-05-22T14:27:25.218Z,18.0224
2019-05-22T14:28:04.073Z,17.7661
2019-05-22T14:28:43.688Z,18.7007
2019-05-22T14:29:21.874Z,18.3883
2019-05-22T14:30:11.618Z,18.1907
2019-05-22T14:31:39.640Z,18.4310
2019-05-22T14:32:16.280Z,17.9236
2019-05-22T14:32:55.706Z,18.0785
2019-05-22T14:33:40.399Z,17.4990
2019-05-22T14:35:06.020Z,18.2040
2019-05-22T14:35:48.662Z,18.3028
2019-05-22T14:36:26.195Z,18.9811
2019-05-22T14:37:03.242Z,18.6713
2019-05-22T14:37:40.217Z,18.6446
2019-05-22T14:38:17.406Z,19.0372
2019-05-22T14:38:54.193Z,18.5298
2019-05-22T14:39:31.257Z,18.0091
2019-05-22T14:40:09.016Z,18.1773
2019-05-22T14:40:46.219Z,18.2628
2019-05-22T14:41:23.192Z,17.9103
2019-05-22T14:42:02.196Z,17.9797
2019-05-22T14:42:39.186Z,18.1479
2019-05-22T14:43:16.202Z,17.9103
2019-05-22T14:43:53.216Z,18.1773
2019-05-22T14:44:33.729Z,18.1212
2019-05-22T14:45:13.877Z,17.9664
2019-05-22T14:45:52.588Z,17.8382
2019-05-22T14:46:29.646Z,17.6112
2019-05-22T14:47:14.778Z,17.9530
2019-05-22T14:47:49.450Z,17.6112
2019-05-22T14:48:26.985Z,17.8515
2019-05-22T14:49:06.463Z,17.6272
2019-05-22T14:49:46.251Z,17.9370
2019-05-22T14:50:24.669Z,17.8222
2019-05-22T14:51:01.196Z,17.6673
2019-05-22T14:51:38.321Z,17.6272
2019-05-22T14:52:14.318Z,17.4990
2019-05-22T14:52:51.192Z,17.2026
2019-05-22T14:53:28.878Z,17.3175
2019-05-22T14:54:06.211Z,17.7394
2019-05-22T14:54:44.568Z,17.6833
2019-05-22T14:55:22.469Z,17.4296
2019-05-22T14:55:59.504Z,17.2614
2019-05-22T14:56:36.774Z,17.2881
2019-05-22T14:57:14.985Z,17.4430
2019-05-22T14:57:53.034Z,17.5124
2019-05-22T14:58:31.308Z,17.5685
2019-05-22T14:59:08.251Z,17.7794
2019-05-22T14:59:45.239Z,17.8222
2019-05-22T15:00:22.314Z,17.8382
2019-05-22T15:00:59.218Z,17.9664
2019-05-22T15:01:36.228Z,18.3749
2019-05-22T15:02:13.185Z,18.0919
2019-05-22T15:02:55.253Z,18.4310
2019-05-22T15:03:32.227Z,18.0652
2019-05-22T15:04:09.547Z,18.3589
2019-05-22T15:04:46.289Z,18.5698
2019-05-22T15:05:23.206Z,17.9931
2019-05-22T15:06:00.203Z,18.0224
2019-05-22T15:06:37.298Z,17.6272
2019-05-22T15:07:14.601Z,17.5284
2019-05-22T15:07:51.316Z,17.8649
2019-05-22T15:08:28.200Z,18.0518
2019-05-22T15:09:04.227Z,17.6539
2019-05-22T15:09:41.217Z,17.9370
2019-05-22T15:10:18.197Z,18.0224
2019-05-22T15:10:55.228Z,17.7955
2019-05-22T15:11:32.261Z,17.8088
2019-05-22T15:12:09.249Z,17.8222
2019-05-22T15:12:46.200Z,17.9931
2019-05-22T15:13:23.202Z,17.7661
2019-05-22T15:14:00.230Z,17.5418
2019-05-22T15:14:37.255Z,17.6673
2019-05-22T15:15:14.303Z,17.7661
2019-05-22T15:15:51.532Z,17.4990
2019-05-22T15:16:28.445Z,17.4163
2019-05-22T15:17:05.196Z,17.4857
2019-05-22T15:17:42.238Z,17.4563
2019-05-22T15:18:19.500Z,17.4002
2019-05-22T15:18:56.236Z,17.2160
2019-05-22T15:19:33.239Z,17.3014
2019-05-22T15:20:10.369Z,17.2026
2019-05-22T15:20:46.291Z,17.2320
2019-05-22T15:21:23.217Z,17.4163
2019-05-22T15:22:00.181Z,17.2320
2019-05-22T15:22:36.240Z,17.3175
2019-05-22T15:23:13.236Z,17.2026
2019-05-22T15:23:50.223Z,17.1733
2019-05-22T15:24:27.291Z,17.3869
2019-05-22T15:25:04.207Z,17.5284
2019-05-22T15:25:41.269Z,17.5845
2019-05-22T15:26:18.205Z,17.4857
2019-05-22T15:26:57.782Z,17.4857
2019-05-22T15:27:33.919Z,17.5418
2019-05-22T15:28:11.765Z,17.5418
2019-05-22T15:28:48.203Z,17.5418
2019-05-22T15:29:25.406Z,17.6539
2019-05-22T15:30:02.230Z,17.5685
2019-05-22T15:30:39.228Z,17.4002
2019-05-22T15:31:16.181Z,17.3014
2019-05-22T15:31:53.217Z,17.4163
2019-05-22T15:32:30.195Z,17.3014
2019-05-22T15:33:07.234Z,17.4163
2019-05-22T15:33:44.366Z,17.4990
2019-05-22T15:34:21.219Z,17.5845
2019-05-22T15:34:57.215Z,17.3442
2019-05-22T15:35:34.313Z,17.4430
2019-05-22T15:36:11.225Z,17.2614
2019-05-22T15:36:48.229Z,17.2454
2019-05-22T15:37:25.194Z,17.2614
2019-05-22T15:38:02.210Z,17.1038
2019-05-22T15:38:39.228Z,17.0745
2019-05-22T15:39:16.240Z,17.0611
2019-05-22T15:39:52.216Z,17.0050
2019-05-22T15:40:29.187Z,17.0878
2019-05-22T15:41:06.209Z,17.0478
2019-05-22T15:41:43.220Z,16.9623
2019-05-22T15:42:19.328Z,17.0050
2019-05-22T15:42:55.499Z,17.2026
2019-05-22T15:43:32.328Z,17.0878
2019-05-22T15:44:08.199Z,17.1172
2019-05-22T15:44:45.231Z,17.0317
2019-05-22T15:45:22.236Z,17.0611
2019-05-22T15:45:59.265Z,17.1305
2019-05-22T15:46:36.189Z,17.2320
2019-05-22T15:47:12.224Z,17.3308
2019-05-22T15:47:55.152Z,17.1866
2019-05-22T15:48:32.003Z,17.2614
2019-05-22T15:49:12.415Z,17.3308
2019-05-22T15:49:49.192Z,17.2614
2019-05-22T15:50:27.051Z,17.2320
2019-05-22T15:51:04.218Z,17.4002
2019-05-22T15:51:41.208Z,17.1866
2019-05-22T15:52:18.673Z,17.2454
2019-05-22T15:52:55.289Z,17.5685
2019-05-22T15:53:31.428Z,17.5551
2019-05-22T15:54:08.937Z,17.5845
2019-05-22T15:54:45.370Z,17.2614
2019-05-22T15:55:22.278Z,17.2320
2019-05-22T15:55:59.224Z,17.3308
2019-05-22T15:56:36.230Z,17.3735
2019-05-22T15:57:13.216Z,17.4002
2019-05-22T15:57:50.261Z,17.2160
2019-05-22T15:58:27.252Z,17.2160
2019-05-22T15:59:04.789Z,17.2026
2019-05-22T15:59:42.502Z,17.3735
2019-05-22T16:00:18.357Z,17.3175
2019-05-22T16:00:55.237Z,17.3014
2019-05-22T16:01:32.301Z,17.3175
2019-05-22T16:02:09.237Z,17.3575
2019-05-22T16:02:45.253Z,17.2320
2019-05-22T16:03:22.219Z,17.2614
2019-05-22T16:03:59.208Z,17.2454
2019-05-22T16:04:36.251Z,17.1866
2019-05-22T16:05:13.253Z,17.1305
2019-05-22T16:05:50.230Z,16.9623
2019-05-22T16:06:27.214Z,16.9623
2019-05-22T16:07:04.237Z,17.1305
2019-05-22T16:07:41.216Z,17.3735
2019-05-22T16:08:18.248Z,17.2320
2019-05-22T16:08:55.208Z,17.1038
2019-05-22T16:09:32.209Z,17.1439
2019-05-22T16:10:09.210Z,17.2747
2019-05-22T16:10:46.234Z,17.4163
2019-05-22T16:11:23.210Z,17.2747
2019-05-22T16:12:00.209Z,17.1733
2019-05-22T16:12:37.225Z,17.1866
2019-05-22T16:13:14.319Z,17.2320
2019-05-22T16:13:51.732Z,17.2454
2019-05-22T16:14:28.217Z,17.5551
2019-05-22T16:15:05.249Z,17.5978
2019-05-22T16:15:42.229Z,17.7394
2019-05-22T16:16:20.247Z,17.7527
2019-05-22T16:16:57.205Z,17.7100
2019-05-22T16:17:34.235Z,17.6833
2019-05-22T16:18:12.306Z,17.7955
2019-05-22T16:18:49.211Z,18.0224
2019-05-22T16:19:25.373Z,17.9530
2019-05-22T16:20:02.236Z,18.2040
2019-05-22T16:20:39.251Z,17.9530
2019-05-22T16:21:16.200Z,17.7234
2019-05-22T16:21:53.245Z,17.6539
2019-05-22T16:22:30.236Z,17.5685
2019-05-22T16:23:07.214Z,17.5418
2019-05-22T16:23:44.223Z,17.5124
2019-05-22T16:24:21.192Z,17.5124
2019-05-22T16:24:58.215Z,17.6673
2019-05-22T16:25:35.228Z,17.4563
2019-05-22T16:26:12.585Z,17.6272
2019-05-22T16:26:50.185Z,17.5551
2019-05-22T16:27:27.295Z,17.6272
2019-05-22T16:28:04.205Z,17.6406
2019-05-22T16:28:41.218Z,17.8088
2019-05-22T16:29:18.245Z,17.9931
2019-05-22T16:29:55.326Z,18.3188
2019-05-22T16:30:32.213Z,18.0785
2019-05-22T16:31:09.236Z,17.8782
2019-05-22T16:31:46.254Z,17.8515
2019-05-22T16:32:23.229Z,18.1640
2019-05-22T16:33:00.194Z,18.1907
2019-05-22T16:33:37.248Z,17.8515
2019-05-22T16:34:14.251Z,17.9370
2019-05-22T16:34:51.204Z,18.1346
2019-05-22T16:35:28.224Z,18.0919
2019-05-22T16:36:05.229Z,18.1773
2019-05-22T16:36:42.231Z,18.1212
2019-05-22T16:37:19.218Z,18.5698
2019-05-22T16:37:56.212Z,18.7434
2019-05-22T16:38:33.208Z,18.7835
2019-05-22T16:39:10.231Z,18.5859
2019-05-22T16:39:50.314Z,18.6019
2019-05-22T16:40:27.264Z,18.3589
2019-05-22T16:41:04.268Z,18.1640
2019-05-22T16:41:40.386Z,18.1640
2019-05-22T16:42:17.282Z,18.2200
2019-05-22T16:42:54.229Z,18.1640
2019-05-22T16:43:47.992Z,18.0652
2019-05-22T16:44:13.217Z,17.8782
2019-05-22T16:44:49.229Z,18.0091
2019-05-22T16:45:26.204Z,18.2895
2019-05-22T16:46:03.217Z,18.1079
2019-05-22T16:46:40.253Z,18.1640
2019-05-22T16:47:17.196Z,18.0785
2019-05-22T16:47:54.224Z,17.8222
2019-05-22T16:48:31.245Z,18.0224
2019-05-22T16:49:08.241Z,18.2467
2019-05-22T16:49:45.230Z,18.1479
2019-05-22T16:50:22.217Z,18.1079
2019-05-22T16:50:59.227Z,18.4310
2019-05-22T16:51:42.490Z,18.5298
2019-05-22T16:52:19.251Z,18.3749
2019-05-22T16:52:56.212Z,18.2628
2019-05-22T16:53:33.437Z,18.4577
2019-05-22T16:54:10.233Z,18.4443
2019-05-22T16:54:48.088Z,18.7007
2019-05-22T16:55:26.327Z,18.7007
2019-05-22T16:56:03.318Z,18.5138
2019-05-22T16:56:40.230Z,18.5565
2019-05-22T16:57:17.248Z,18.4016
2019-05-22T16:57:54.258Z,18.6152
2019-05-22T16:58:31.226Z,18.4577
2019-05-22T16:59:08.237Z,18.5138
2019-05-22T16:59:45.213Z,18.5698
2019-05-22T17:00:22.258Z,18.5859
2019-05-22T17:00:59.235Z,18.5138
2019-05-22T17:01:56.229Z,18.3749
2019-05-22T17:02:18.180Z,18.2761
2019-05-22T17:02:55.250Z,18.1079
2019-05-22T17:03:32.209Z,17.9664
2019-05-22T17:04:09.217Z,17.7527
2019-05-22T17:04:46.229Z,17.8782
2019-05-22T17:05:23.246Z,17.8649
2019-05-22T17:06:00.218Z,17.9530
2019-05-22T17:06:37.249Z,17.8649
2019-05-22T17:07:14.225Z,17.8943
2019-05-22T17:07:51.250Z,17.7394
2019-05-22T17:08:28.238Z,17.6272
2019-05-22T17:09:05.248Z,17.8222
2019-05-22T17:09:42.247Z,17.8382
2019-05-22T17:10:19.232Z,17.8222
2019-05-22T17:10:56.285Z,17.9797
2019-05-22T17:11:33.207Z,18.0224
2019-05-22T17:12:09.404Z,18.0919
2019-05-22T17:12:46.242Z,18.1346
2019-05-22T17:13:23.220Z,18.1346
2019-05-22T17:14:00.233Z,18.0518
2019-05-22T17:14:37.222Z,18.1346
2019-05-22T17:15:13.211Z,18.1079
2019-05-22T17:15:50.253Z,18.1212
2019-05-22T17:16:27.237Z,18.0091
2019-05-22T17:17:04.443Z,18.1479
2019-05-22T17:17:41.266Z,18.3188
2019-05-22T17:18:18.238Z,18.6286
2019-05-22T17:18:55.296Z,18.3455
2019-05-22T17:19:31.250Z,18.2467
2019-05-22T17:20:08.801Z,18.0518
2019-05-22T17:20:46.775Z,18.1773
2019-05-22T17:21:24.303Z,18.2628
2019-05-22T17:22:01.227Z,18.0358
2019-05-22T17:22:38.203Z,17.7527
2019-05-22T17:23:15.202Z,17.7794
2019-05-22T17:23:52.228Z,17.8382
2019-05-22T17:24:29.216Z,18.0358
2019-05-22T17:25:06.197Z,18.1479
2019-05-22T17:25:43.212Z,17.5978
2019-05-22T17:26:20.226Z,17.6272
2019-05-22T17:26:57.210Z,17.6272
2019-05-22T17:27:34.232Z,17.6673
2019-05-22T17:28:11.231Z,17.6833
2019-05-22T17:28:48.225Z,17.6673
2019-05-22T17:29:25.270Z,17.7794
2019-05-22T17:30:02.514Z,17.7794
2019-05-22T17:30:40.258Z,17.8088
2019-05-22T17:31:17.210Z,17.8222
2019-05-22T17:31:54.467Z,17.9530
2019-05-22T17:32:31.217Z,17.9797
2019-05-22T17:33:08.242Z,17.8222
2019-05-22T17:33:45.223Z,17.7527
2019-05-22T17:34:22.206Z,18.1079
2019-05-22T17:34:59.204Z,18.1479
2019-05-22T17:35:36.543Z,18.0091
2019-05-22T17:36:12.211Z,17.6673
2019-05-22T17:36:49.231Z,17.7394
2019-05-22T17:37:26.240Z,17.7394
2019-05-22T17:38:03.258Z,17.5685
2019-05-22T17:38:40.301Z,17.7527
2019-05-22T17:39:17.399Z,17.7394
2019-05-22T17:39:53.335Z,17.7100
2019-05-22T17:40:30.237Z,17.7794
2019-05-22T17:41:09.419Z,17.8222
2019-05-22T17:41:46.293Z,17.7234
2019-05-22T17:42:23.203Z,17.6406
2019-05-22T17:43:00.208Z,17.6673
2019-05-22T17:43:37.213Z,17.6539
2019-05-22T17:44:14.207Z,17.6673
2019-05-22T17:44:51.219Z,17.6833
2019-05-22T17:45:28.384Z,17.8515
2019-05-22T17:46:08.005Z,17.9797
2019-05-22T17:46:48.134Z,17.9931
2019-05-22T17:47:25.874Z,18.0358
2019-05-22T17:48:04.431Z,18.0091
2019-05-22T17:48:41.850Z,17.8782
2019-05-22T17:49:19.279Z,17.9797
2019-05-22T17:49:56.199Z,17.8382
2019-05-22T17:50:33.195Z,17.6833
2019-05-22T17:51:10.256Z,17.9664
2019-05-22T17:51:47.380Z,17.9370
2019-05-22T17:52:24.277Z,18.0652
2019-05-22T17:53:01.235Z,17.8943
2019-05-22T17:53:37.348Z,17.7527
2019-05-22T17:54:14.211Z,18.0518
2019-05-22T17:54:51.222Z,17.9797
2019-05-22T17:55:37.237Z,17.9530
2019-05-22T17:56:16.312Z,17.9370
2019-05-22T17:56:53.237Z,17.7794
2019-05-22T17:57:35.637Z,17.7794
2019-05-22T17:58:12.346Z,17.6539
2019-05-22T17:58:48.243Z,17.7527
2019-05-22T17:59:25.209Z,17.7100
2019-05-22T18:00:01.248Z,17.5978
2019-05-22T18:00:38.259Z,17.4563
2019-05-22T18:01:15.301Z,17.3735
2019-05-22T18:01:52.342Z,17.6406
2019-05-22T18:02:29.232Z,17.4990
2019-05-22T18:03:06.237Z,17.3735
2019-05-22T18:03:43.202Z,17.5124
2019-05-22T18:04:20.228Z,17.4163
2019-05-22T18:04:57.223Z,17.3014
2019-05-22T18:05:34.204Z,16.9329
2019-05-22T18:06:11.676Z,17.2747
2019-05-22T18:06:48.896Z,17.2881
2019-05-22T18:07:26.128Z,17.2320
2019-05-22T18:08:03.317Z,17.2747
2019-05-22T18:08:40.225Z,17.2026
2019-05-22T18:09:17.234Z,17.2454
2019-05-22T18:09:54.241Z,17.0184
2019-05-22T18:10:31.227Z,16.8929
2019-05-22T18:11:08.226Z,17.0317
2019-05-22T18:11:46.679Z,17.0878
2019-05-22T18:12:23.287Z,17.0478
2019-05-22T18:13:00.225Z,16.9757
2019-05-22T18:13:37.190Z,16.8635
2019-05-22T18:14:14.252Z,16.8074
2019-05-22T18:14:53.630Z,16.7220
2019-05-22T18:15:30.336Z,16.6819
2019-05-22T18:16:08.510Z,16.2013
2019-05-22T18:16:46.458Z,16.1292
2019-05-22T18:17:23.375Z,16.0170
2019-05-22T18:18:00.325Z,16.1452
2019-05-22T18:18:36.214Z,15.8167
2019-05-22T18:19:13.216Z,15.7607
2019-05-22T18:19:50.220Z,15.5924
2019-05-22T18:20:41.761Z,15.4242
2019-05-22T18:21:10.685Z,15.2399
2019-05-22T18:21:48.250Z,15.3948
2019-05-22T18:22:25.222Z,15.3388
2019-05-22T18:23:02.294Z,15.0557
2019-05-22T18:23:39.237Z,15.0290
2019-05-22T18:24:17.069Z,14.8741
2019-05-22T18:24:54.633Z,15.0130
2019-05-22T18:25:32.387Z,14.8314
2019-05-22T18:26:09.996Z,14.8741
2019-05-22T18:26:48.520Z,14.9302
2019-05-22T18:27:26.015Z,15.0690
2019-05-22T18:28:03.336Z,14.8180
2019-05-22T18:28:41.679Z,14.6765
2019-05-22T18:29:18.400Z,14.5777
2019-05-22T18:29:56.140Z,14.9702
2019-05-22T18:30:41.262Z,15.5791
2019-05-22T18:31:18.158Z,15.4109
2019-05-22T18:31:56.353Z,15.1839
2019-05-22T18:32:34.187Z,14.8875
2019-05-22T18:33:11.760Z,14.8741
2019-05-22T18:33:49.453Z,14.9996
2019-05-22T18:34:26.207Z,15.6485
2019-05-22T18:35:04.167Z,15.5924
2019-05-22T18:35:43.175Z,15.0290
2019-05-22T18:36:21.263Z,15.1545
2019-05-22T18:36:59.138Z,15.0851
2019-05-22T18:37:36.755Z,14.7593
2019-05-22T18:38:12.883Z,14.8447
2019-05-22T18:38:50.020Z,14.8581
2019-05-22T18:39:29.228Z,14.7753
2019-05-22T18:40:07.271Z,14.5350
2019-05-22T18:40:44.886Z,14.2947
2019-05-22T18:41:21.254Z,14.2386
2019-05-22T18:41:58.211Z,14.1531
2019-05-22T18:42:35.248Z,14.0276
2019-05-22T18:43:12.201Z,14.0970
2019-05-22T18:43:49.204Z,13.9849
2019-05-22T18:44:26.226Z,13.9715
2019-05-22T18:45:03.225Z,13.7579
2019-05-22T18:45:40.212Z,13.5737
2019-05-22T18:46:17.231Z,13.3921
2019-05-22T18:46:54.227Z,13.2639
2019-05-22T18:47:31.208Z,12.9942
2019-05-22T18:48:08.289Z,13.1250
2019-05-22T18:48:48.139Z,12.7272
2019-05-22T18:49:25.299Z,12.7832
2019-05-22T18:50:01.265Z,12.8126
2019-05-22T18:50:38.215Z,12.8393
2019-05-22T18:51:15.248Z,12.8820
2019-05-22T18:51:52.210Z,12.9809
2019-05-22T18:52:40.722Z,13.2372
2019-05-22T18:53:11.219Z,13.0797
2019-05-22T18:53:48.229Z,12.8393
2019-05-22T18:54:25.217Z,12.6150
2019-05-22T18:55:02.313Z,12.7966
2019-05-22T18:55:39.215Z,12.7966
2019-05-22T18:56:16.227Z,12.7966
2019-05-22T18:56:53.270Z,12.6150
2019-05-22T18:57:30.227Z,12.5456
2019-05-22T18:58:07.226Z,12.5589
2019-05-22T18:58:44.232Z,12.5723
2019-05-22T18:59:21.256Z,12.6711
2019-05-22T19:00:03.969Z,12.6417
2019-05-22T19:00:40.230Z,12.8126
2019-05-22T19:01:17.234Z,12.8687
2019-05-22T19:01:53.213Z,12.8687